Scroll down
FLIGHT INFORMATION
United Airlines

UAL2390

At Arrival Gate

KORD
 KPDX
DATE: 2019-11-29
GATE:  -
GATE DEPARTURE: 19:12
TAKEOFF: 19:22
DATE: 2019-11-29
GATE:  -
LANDING: 23:27
GATE ARRIVAL: 23:33
FLIGHT DATA
Crew: 
Speed: 
474 kts
Altitude: 
34,026 ft
Stage Length: 
1,507.2 nm
Block Time: 
4.4 hrs
Flight Time: 
4.1 hrs
Fuel Used: 
24,361 lb
Cleared Route: 
TRACK DATA
50,000 ft 1,000 kts
AIRCRAFT INFO AND CUMULATIVE STATS
Aircraft Type: 
B738SSW
Registration: 
SELCAL: 
MSN/LN: 
31586 / 939
Operator: 
Total Flights: 
33
Total Block Time: 
84.8 hrs
Total Flight Time: 
77.1 hrs
Total Fuel Time: 
480,543 lb
DATALINK LOG | Newest first | Current as of: 2020-12-04 22:57:35
LABEL SEQUENCE CONTENT Dn/Up
QD330223:33 7.1▼ Dn
QC284023:27▼ Dn
2U0546KPDX 290253Z 09014G23KT 10SM CLR 04/M06 A2987 RMK AO2 SLP113 T00391061 51010▲ Up
2S0546KPDX▼ Dn
GA4431ADVANCED GATE ASSIGNMENTS NOT YET AVAILABLE AT THIS AIRPORT▲ Up
GR4447KPDX --:-- MAAS 00 YP/UM 00/00 WCHR/S/C 00/00/00 DIPL/VIP NO▼ Dn
2U0851KPDX 290053Z 09016G22KT 10SM FEW060 FEW100 04/M06 A2985 RMK AO2 SLP109 T00391056▲ Up
5U0855KPDX 290559Z 10013KT 10SM SKC 04/M06 A2985▲ Up
5S0855KPDX▼ Dn
2S0851KPDX▼ Dn
QB233919:22▼ Dn
A31602CLEARED TO KPDX VIA MYKIE MONNY SMIDD FSD KD87Y KD90U KU03M JKNOX HHOOD4. SQUAWK 3747.▲ Up
B31302KORD KPDX UAL2390 N37267 ▼ Dn
QA121719:12 31.5▼ Dn
A71249CLEARANCE AVAIL WITHIN 0:25 OF EDT▲ Up
B31048KORD KPDX UAL2390 N37267 ▼ Dn
A70744CLEARANCE AVAIL WITHIN 0:25 OF EDT▲ Up
B30535KORD KPDX UAL2390 N37267 ▼ Dn
Q00643[LINK ACK]▲ Up
Q00310[LINK TEST]▼ Dn


AIRCRAFT HISTORY
FLIGHT DATE FLIGHT NO. ORIGIN DESTINATION CLEARED ROUTE BLOCK TIME FLIGHT TIME FUEL USED PILOT
2020-11-02UAL1102PGUM PWAK PGUM BAGBE HOPPY FONUG STINE DEWSS JIMOS AWK PWAK3.6 hrs3.3 hrs21,061 lbCharles Harris
2020-07-25UAL727PTKK PGUM PTKK WUMVE GUNSS JUNIE OPLAR GUMGE FIGOR PGUM1.6 hrs1.4 hrs9,106 lbJames W.
2020-07-24UAL726PTPN PTKK PTPN BIRUQ MICNO RW041.2 hrs1 hrs7,369 lbJames W.
2020-07-24UAL725PTSA PTPN PTSA AXTEN RW091.2 hrs1 hrs7,251 lbJames W.
2020-07-23UAL724PKWA PTSA PKWA STEFF LECWI PTSA1.2 hrs1 hrs7,399 lbJames W.
2020-07-23UAL723PKMJ PKWA PKMJ OREEO RW061.1 hrs0.9 hrs7,023 lbJames W.
2020-06-19UAL157PHNL PKMJ PHNL OPIHI SEBYI SECJI ZUKEY BINJO CHOKO MCFLY MANRE MAZZA EFAHU RW074.9 hrs4.6 hrs26,346 lbDan Downs
2020-03-23UAL155PKMJ PHNL 4.5 hrs4.2 hrs25,435 lbDan Downs
2020-03-22UAL155PKWA PKMJ 0.8 hrs0.7 hrs5,131 lbDan Downs
2020-03-22UAL155PTSA PKWA 1.2 hrs1 hrs6,962 lbDan Downs
2020-03-22UAL155PTPN PTSA 1 hrs0.8 hrs6,138 lbDan Downs
2020-03-21UAL155PTKK PTPN 1.2 hrs1 hrs7,487 lbDan Downs
2020-03-21UAL155PGUM PTKK 1.7 hrs1.4 hrs9,742 lbDan Downs
2020-03-18UAL184RPLL PGUM 3.4 hrs3.1 hrs18,694 lbDan Downs
2020-02-02UAL183PGUM RPLL 3.6 hrs3.3 hrs20,734 lbDan Downs
2020-01-29UAL197RJAA PGUM 4.1 hrs3.5 hrs23,099 lbDan Downs
2019-12-10UAL603PTKK RJAA 4.9 hrs4.5 hrs25,188 lbCharles Harris
2019-12-10UAL154PTPN PTKK 1.2 hrs1.1 hrs6,910 lbDan Downs
2019-12-09UAL154PTSA PTPN 1.1 hrs0.9 hrs6,172 lbDan Downs
2019-12-09UAL154PKWA PTSA 1.2 hrs1 hrs6,934 lbDan Downs
2019-12-02UAL157PKMJ PKWA 1 hrs0.8 hrs5,325 lbDan Downs
2019-12-02UAL154PHNL PKMJ 5.2 hrs4.9 hrs28,948 lbDan Downs
2019-12-01UAL2380KSFO PHNL 5.3 hrs5 hrs31,087 lbDan Downs
2019-11-30UAL1675KBWI KSFO 6 hrs5.8 hrs34,158 lbMichael Roth
2019-11-30UAL1061KSFO KBWI 4.4 hrs4.4 hrs25,285 lbMichael Roth
2019-11-29UAL2233KPDX KSFO 1.6 hrs1.3 hrs8,130 lbMichael Roth
2019-11-29UAL2390KORD KPDX 4.4 hrs4.1 hrs24,361 lbMichael Roth
2019-11-24UAL1598KBOS KORD 2.7 hrs2.3 hrs13,456 lbMichael Roth
2019-11-23UAL822KIAD KBOS 1.3 hrs1.1 hrs7,183 lbDan Downs
2019-11-23UAL340KORD KIAD 1.8 hrs1.4 hrs9,450 lbDan Downs
2019-11-22UAL1121KDEN KORD 2.4 hrs1.9 hrs11,255 lbMichael Roth
2019-11-17UAL3477KIAD KDEN 3.7 hrs3.3 hrs19,144 lbAaron Buchanan
2019-11-14UAL1114KORD KIAD 1.7 hrs1.3 hrs8,580 lbAaron Buchanan